Macarthur, Pennsylvania
Current Conditions -  °F | °C
As of 1:51 PM on Saturday 25 Oct 2014 (Local Time) from KPIT Reporting Station
Scattered Clouds Scattered Clouds  
Wind Chill: 64°   Ceiling: Unl
Heat Index: 64°   Visibility: 10mi
Dew Point: 48°   Wind: 20mph
Humidity: 56%   Direction: 230°SW
Pressure: 29.82"   Gusts: 25mph
Location:  40.5921°N, 80.3191°W
Report Text: KPIT 251751Z 23017G22KT 10SM SCT065 SCT250 18/09 A2982 RMK AO2 PK WND 23026/1704 SLP106 T01780089 10178 20089 58032
Loading
Personal Weather Stations






























Interactive Weather Map
Tropical Storm Tracking
New forecast layout! Learn more

10-Day Weather Forecast

Advertisements
Track Severe Weather on mobile